Impacts TAF Board INFO
FOR SITUATIONAL AWARENESS. NOT TO BE USED FOR FLIGHT PLANNING PURPOSES.
IDs:

KMSY - New Orleans/Armstron, LA, US

Issued at 1745 UTC 17 Jul 2018
Updated at 1937 UTC 17 Jul 2018
Potential Impact None Slight Moderate High
Time1932Z 17/20Z 17/21Z 17/22Z 17/23Z 18/00Z 18/01Z 18/02Z 18/03Z 18/04Z 18/05Z 18/06Z 18/07Z 18/08Z>>
Type OBS PRVL
  [TEMP]  
PRVL
  [TEMP]  
PRVL
  [TEMP]  
PRVL PRVL PRVL PRVL PRVL PRVL PRVL PRVL PRVL PRVL
VIS 6 >6
  [4]  
>6
  [4]  
>6
  [4]  
>6 >6 >6 >6 >6 >6 >6 >6 >6 >6
CIG 150 90
  [25]  
90
  [25]  
90
  [25]  
90 100 100 100 100 100 100 100 100 100
Cover OVC BKN
  [BKN]  
BKN
  [BKN]  
BKN
  [BKN]  
BKN BKN BKN BKN BKN BKN BKN BKN BKN BKN
FltCat VFR VFR
  [MVFR]  
VFR
  [MVFR]  
VFR
  [MVFR]  
VFR VFR VFR VFR VFR VFR VFR VFR VFR VFR
WX TS HZ VCSH
  [+TSRA]  
VCSH
  [+TSRA]  
VCSH
  [+TSRA]  
VCSH VCTS VCTS VCTS -- -- -- -- -- --
WDir 270 300
[300]
300
[300]
300
[300]
300 240 240 240 240 240 240 240 240 240
WSpd 9 6
  [6]  
6
  [6]  
6
  [6]  
6 5 5 5 4 4 4 4 4 4
WGst -- --
  [--]  
--
  [--]  
--
  [--]  
-- -- -- -- -- -- -- -- -- --

Raw TAF
KMSY 171745Z 1718/1824 30006KT P6SM VCSH SCT025 BKN090
  TEMPO 1719/1723 4SM +TSRA BKN025CB
  FM180000 24005KT P6SM VCTS SCT035CB BKN100
  FM180300 24004KT P6SM BKN100
  FM181200 VRB03KT P6SM SHRA VCTS BKN025CB OVC060
  FM181400 29007KT P6SM SHRA VCTS BKN035CB OVC090


Raw METAR
KMSY 171932Z 27009KT 6SM TS HZ FEW032CB BKN150 OVC200 32/26 A3004 RMK AO2 LTG DSNT N-SE TSB32 OCNL LTGICCG N-NE TS N-NE MOV SE T03170256
KMSY 171853Z 28010KT 7SM FEW030 BKN150 OVC200 32/26 A3004 RMK AO2 LTG DSNT SE SLP174 T03170256
KMSY 171753Z 28011KT 7SM FEW025 BKN150 OVC200 31/26 A3006 RMK AO2 LTG DSNT SE SLP182 60001 T03060256 10311 20272 56006
KMSY 171653Z 30008KT 7SM FEW025 BKN150 OVC200 31/27 A3006 RMK AO2 SLP183 T03060267

METAR Board
Radar Display
Forecast Discussion

FOR SITUATIONAL AWARENESS. NOT TO BE USED FOR FLIGHT PLANNING PURPOSES.